sensor_id;sensor_type;location;lat;lon;timestamp;temperature;humidity
69281;SHT31;56392;51.082;17.080;2024-03-23T00:58:47;10.90;85.64
69281;SHT31;56392;51.082;17.080;2024-03-23T01:04:11;10.93;85.62
69281;SHT31;56392;51.082;17.080;2024-03-23T01:09:37;10.91;85.54
69281;SHT31;56392;51.082;17.080;2024-03-23T01:15:01;10.85;85.51
69281;SHT31;56392;51.082;17.080;2024-03-23T01:20:24;10.84;85.36
69281;SHT31;56392;51.082;17.080;2024-03-23T01:25:53;10.90;84.18
69281;SHT31;56392;51.082;17.080;2024-03-23T01:31:17;10.98;84.11
69281;SHT31;56392;51.082;17.080;2024-03-23T01:36:41;10.97;83.32
69281;SHT31;56392;51.082;17.080;2024-03-23T01:42:06;10.96;83.30
69281;SHT31;56392;51.082;17.080;2024-03-23T01:47:32;10.88;82.91
69281;SHT31;56392;51.082;17.080;2024-03-23T01:53:00;10.83;82.94
69281;SHT31;56392;51.082;17.080;2024-03-23T01:58:25;10.77;83.00
69281;SHT31;56392;51.082;17.080;2024-03-23T02:03:49;10.74;82.85
69281;SHT31;56392;51.082;17.080;2024-03-23T02:09:14;10.73;82.94
69281;SHT31;56392;51.082;17.080;2024-03-23T02:14:39;10.76;82.92
69281;SHT31;56392;51.082;17.080;2024-03-23T02:20:02;10.78;82.52
69281;SHT31;56392;51.082;17.080;2024-03-23T02:25:29;10.85;82.84
69281;SHT31;56392;51.082;17.080;2024-03-23T02:30:52;10.77;82.69
69281;SHT31;56392;51.082;17.080;2024-03-23T02:36:15;10.74;82.62
69281;SHT31;56392;51.082;17.080;2024-03-23T02:41:42;10.77;82.88
69281;SHT31;56392;51.082;17.080;2024-03-23T02:47:12;10.74;82.75
69281;SHT31;56392;51.082;17.080;2024-03-23T02:52:35;10.68;83.06
69281;SHT31;56392;51.082;17.080;2024-03-23T02:58:00;10.73;82.69
69281;SHT31;56392;51.082;17.080;2024-03-23T03:03:24;10.73;82.75
69281;SHT31;56392;51.082;17.080;2024-03-23T03:08:47;10.71;82.82
69281;SHT31;56392;51.082;17.080;2024-03-23T03:14:12;10.73;83.35
69281;SHT31;56392;51.082;17.080;2024-03-23T03:19:36;10.68;83.56
69281;SHT31;56392;51.082;17.080;2024-03-23T03:24:59;10.67;83.62
69281;SHT31;56392;51.082;17.080;2024-03-23T03:30:25;10.70;83.48
69281;SHT31;56392;51.082;17.080;2024-03-23T03:35:48;10.68;83.55
69281;SHT31;56392;51.082;17.080;2024-03-23T03:41:13;10.70;83.44
69281;SHT31;56392;51.082;17.080;2024-03-23T03:46:40;10.71;83.22
69281;SHT31;56392;51.082;17.080;2024-03-23T03:52:04;10.71;83.09
69281;SHT31;56392;51.082;17.080;2024-03-23T03:57:28;10.70;83.17
69281;SHT31;56392;51.082;17.080;2024-03-23T04:02:52;10.67;83.45
69281;SHT31;56392;51.082;17.080;2024-03-23T04:08:15;10.66;83.49
69281;SHT31;56392;51.082;17.080;2024-03-23T04:13:41;10.66;83.83
69281;SHT31;56392;51.082;17.080;2024-03-23T04:19:06;10.63;84.02
69281;SHT31;56392;51.082;17.080;2024-03-23T04:24:29;10.61;83.65
69281;SHT31;56392;51.082;17.080;2024-03-23T04:29:53;10.57;84.03
69281;SHT31;56392;51.082;17.080;2024-03-23T04:35:18;10.45;84.70
69281;SHT31;56392;51.082;17.080;2024-03-23T04:40:41;10.36;84.40
69281;SHT31;56392;51.082;17.080;2024-03-23T04:46:04;10.23;84.57
69281;SHT31;56392;51.082;17.080;2024-03-23T04:51:35;10.19;84.76
69281;SHT31;56392;51.082;17.080;2024-03-23T04:56:58;10.05;84.88
69281;SHT31;56392;51.082;17.080;2024-03-23T05:02:22;9.98;85.40
69281;SHT31;56392;51.082;17.080;2024-03-23T05:07:49;10.02;85.62
69281;SHT31;56392;51.082;17.080;2024-03-23T05:13:14;10.13;85.14
69281;SHT31;56392;51.082;17.080;2024-03-23T05:18:37;10.26;84.83
69281;SHT31;56392;51.082;17.080;2024-03-23T05:24:02;10.33;84.50
69281;SHT31;56392;51.082;17.080;2024-03-23T05:29:25;10.42;84.41
69281;SHT31;56392;51.082;17.080;2024-03-23T05:34:51;10.45;84.45
69281;SHT31;56392;51.082;17.080;2024-03-23T05:40:19;10.42;84.69
69281;SHT31;56392;51.082;17.080;2024-03-23T05:45:42;10.40;84.58
69281;SHT31;56392;51.082;17.080;2024-03-23T05:51:05;10.61;84.08
69281;SHT31;56392;51.082;17.080;2024-03-23T05:56:31;11.03;83.00
69281;SHT31;56392;51.082;17.080;2024-03-23T06:01:54;11.55;82.01
69281;SHT31;56392;51.082;17.080;2024-03-23T06:07:20;11.73;79.23
69281;SHT31;56392;51.082;17.080;2024-03-23T06:12:45;12.13;79.38
69281;SHT31;56392;51.082;17.080;2024-03-23T06:18:08;12.55;77.48
69281;SHT31;56392;51.082;17.080;2024-03-23T06:23:32;12.98;76.51
69281;SHT31;56392;51.082;17.080;2024-03-23T06:28:56;12.75;77.26
69281;SHT31;56392;51.082;17.080;2024-03-23T06:34:20;12.44;77.37
69281;SHT31;56392;51.082;17.080;2024-03-23T06:39:46;12.61;77.94
69281;SHT31;56392;51.082;17.080;2024-03-23T06:45:11;12.98;75.85
69281;SHT31;56392;51.082;17.080;2024-03-23T06:50:35;13.54;74.64
69281;SHT31;56392;51.082;17.080;2024-03-23T06:55:58;14.91;70.50
69281;SHT31;56392;51.082;17.080;2024-03-23T07:01:24;17.21;63.26
69281;SHT31;56392;51.082;17.080;2024-03-23T07:06:47;20.63;56.46
69281;SHT31;56392;51.082;17.080;2024-03-23T07:12:11;24.69;45.82
69281;SHT31;56392;51.082;17.080;2024-03-23T07:17:36;26.12;38.67
69281;SHT31;56392;51.082;17.080;2024-03-23T07:22:59;28.40;39.03
69281;SHT31;56392;51.082;17.080;2024-03-23T07:28:23;28.09;35.04
69281;SHT31;56392;51.082;17.080;2024-03-23T07:33:48;30.28;35.34
69281;SHT31;56392;51.082;17.080;2024-03-23T07:39:12;30.72;32.73
69281;SHT31;56392;51.082;17.080;2024-03-23T07:44:35;31.53;32.22
69281;SHT31;56392;51.082;17.080;2024-03-23T07:50:03;31.81;32.39
69281;SHT31;56392;51.082;17.080;2024-03-23T07:55:27;32.56;31.67
69281;SHT31;56392;51.082;17.080;2024-03-23T08:00:52;30.45;34.02
69281;SHT31;56392;51.082;17.080;2024-03-23T08:06:18;25.98;41.77
69281;SHT31;56392;51.082;17.080;2024-03-23T08:11:42;22.72;46.25
69281;SHT31;56392;51.082;17.080;2024-03-23T08:17:07;21.31;48.97
69281;SHT31;56392;51.082;17.080;2024-03-23T08:22:32;21.03;49.63
69281;SHT31;56392;51.082;17.080;2024-03-23T08:27:55;20.98;49.50
69281;SHT31;56392;51.082;17.080;2024-03-23T08:33:18;20.32;50.61
69281;SHT31;56392;51.082;17.080;2024-03-23T08:38:43;19.81;52.30
69281;SHT31;56392;51.082;17.080;2024-03-23T08:44:09;24.65;43.71
69281;SHT31;56392;51.082;17.080;2024-03-23T08:49:32;27.61;37.89
69281;SHT31;56392;51.082;17.080;2024-03-23T08:54:59;23.18;45.43
69281;SHT31;56392;51.082;17.080;2024-03-23T09:00:23;21.03;49.61
69281;SHT31;56392;51.082;17.080;2024-03-23T09:05:46;19.73;51.63
69281;SHT31;56392;51.082;17.080;2024-03-23T09:11:12;18.85;53.68
69281;SHT31;56392;51.082;17.080;2024-03-23T09:16:36;18.04;55.26
69281;SHT31;56392;51.082;17.080;2024-03-23T09:22:00;17.31;57.23
69281;SHT31;56392;51.082;17.080;2024-03-23T09:27:25;17.04;58.23
69281;SHT31;56392;51.082;17.080;2024-03-23T09:32:49;16.96;58.69
69281;SHT31;56392;51.082;17.080;2024-03-23T09:38:12;16.82;59.48
69281;SHT31;56392;51.082;17.080;2024-03-23T09:43:37;17.32;58.39
69281;SHT31;56392;51.082;17.080;2024-03-23T09:49:00;22.13;47.19
69281;SHT31;56392;51.082;17.080;2024-03-23T09:54:26;21.14;47.52
69281;SHT31;56392;51.082;17.080;2024-03-23T09:59:50;20.59;50.00
69281;SHT31;56392;51.082;17.080;2024-03-23T10:05:20;19.44;52.99
69281;SHT31;56392;51.082;17.080;2024-03-23T10:10:45;19.78;52.52
69281;SHT31;56392;51.082;17.080;2024-03-23T10:16:10;26.53;38.69
69281;SHT31;56392;51.082;17.080;2024-03-23T10:21:33;27.15;38.61
69281;SHT31;56392;51.082;17.080;2024-03-23T10:26:56;28.79;35.78
69281;SHT31;56392;51.082;17.080;2024-03-23T10:32:21;28.50;36.32
69281;SHT31;56392;51.082;17.080;2024-03-23T10:37:45;24.01;44.04
69281;SHT31;56392;51.082;17.080;2024-03-23T10:43:09;23.08;46.46
69281;SHT31;56392;51.082;17.080;2024-03-23T10:48:35;22.13;48.62
69281;SHT31;56392;51.082;17.080;2024-03-23T10:54:04;21.25;50.53
69281;SHT31;56392;51.082;17.080;2024-03-23T10:59:29;20.36;52.39
69281;SHT31;56392;51.082;17.080;2024-03-23T11:04:56;19.60;54.25
69281;SHT31;56392;51.082;17.080;2024-03-23T11:10:25;19.23;55.13
69281;SHT31;56392;51.082;17.080;2024-03-23T11:15:49;19.40;52.90
69281;SHT31;56392;51.082;17.080;2024-03-23T11:27:16;20.14;51.74
69281;SHT31;56392;51.082;17.080;2024-03-23T11:32:39;20.79;50.62
69281;SHT31;56392;51.082;17.080;2024-03-23T11:38:15;21.04;48.87
69281;SHT31;56392;51.082;17.080;2024-03-23T11:43:39;20.45;48.06
69281;SHT31;56392;51.082;17.080;2024-03-23T11:49:02;20.09;48.87
69281;SHT31;56392;51.082;17.080;2024-03-23T11:54:27;19.68;49.36
69281;SHT31;56392;51.082;17.080;2024-03-23T11:59:50;19.20;49.98
69281;SHT31;56392;51.082;17.080;2024-03-23T12:05:15;18.79;50.42
69281;SHT31;56392;51.082;17.080;2024-03-23T12:10:40;18.55;51.80
69281;SHT31;56392;51.082;17.080;2024-03-23T12:16:09;18.11;54.85
69281;SHT31;56392;51.082;17.080;2024-03-23T12:21:34;18.04;54.89
69281;SHT31;56392;51.082;17.080;2024-03-23T12:27:01;18.17;54.42
69281;SHT31;56392;51.082;17.080;2024-03-23T12:32:24;18.10;53.82
69281;SHT31;56392;51.082;17.080;2024-03-23T12:37:47;17.89;54.33
69281;SHT31;56392;51.082;17.080;2024-03-23T12:43:12;17.87;54.19
69281;SHT31;56392;51.082;17.080;2024-03-23T12:48:35;17.69;53.13
69281;SHT31;56392;51.082;17.080;2024-03-23T12:53:58;17.36;53.39
69281;SHT31;56392;51.082;17.080;2024-03-23T12:59:23;17.33;53.28
69281;SHT31;56392;51.082;17.080;2024-03-23T13:04:49;17.16;52.99
69281;SHT31;56392;51.082;17.080;2024-03-23T13:10:12;16.71;53.57
69281;SHT31;56392;51.082;17.080;2024-03-23T13:15:38;15.58;56.50
69281;SHT31;56392;51.082;17.080;2024-03-23T13:21:01;15.01;58.57
69281;SHT31;56392;51.082;17.080;2024-03-23T13:26:24;14.79;60.15
69281;SHT31;56392;51.082;17.080;2024-03-23T13:31:50;14.18;63.32
69281;SHT31;56392;51.082;17.080;2024-03-23T13:37:13;13.91;64.07
69281;SHT31;56392;51.082;17.080;2024-03-23T13:42:38;13.60;63.22
69281;SHT31;56392;51.082;17.080;2024-03-23T13:48:04;14.28;61.49
69281;SHT31;56392;51.082;17.080;2024-03-23T13:53:28;14.22;60.11
69281;SHT31;56392;51.082;17.080;2024-03-23T13:58:51;13.73;62.57
69281;SHT31;56392;51.082;17.080;2024-03-23T14:04:16;12.91;64.84
69281;SHT31;56392;51.082;17.080;2024-03-23T14:09:41;12.38;66.89
69281;SHT31;56392;51.082;17.080;2024-03-23T14:15:06;11.28;68.08
69281;SHT31;56392;51.082;17.080;2024-03-23T14:20:30;11.55;65.50
69281;SHT31;56392;51.082;17.080;2024-03-23T14:25:54;11.56;65.17
69281;SHT31;56392;51.082;17.080;2024-03-23T14:31:18;11.01;66.43
69281;SHT31;56392;51.082;17.080;2024-03-23T14:36:42;10.84;65.88
69281;SHT31;56392;51.082;17.080;2024-03-23T14:42:06;10.39;65.77
69281;SHT31;56392;51.082;17.080;2024-03-23T14:47:30;9.95;68.38
69281;SHT31;56392;51.082;17.080;2024-03-23T14:52:55;9.89;67.96
69281;SHT31;56392;51.082;17.080;2024-03-23T14:58:18;10.15;66.56
69281;SHT31;56392;51.082;17.080;2024-03-23T15:03:41;9.92;66.38
69281;SHT31;56392;51.082;17.080;2024-03-23T15:09:06;9.51;68.55
69281;SHT31;56392;51.082;17.080;2024-03-23T15:14:32;8.93;71.62
69281;SHT31;56392;51.082;17.080;2024-03-23T15:19:56;8.56;72.76
69281;SHT31;56392;51.082;17.080;2024-03-23T15:25:20;8.54;72.90
69281;SHT31;56392;51.082;17.080;2024-03-23T15:30:45;8.49;72.54
69281;SHT31;56392;51.082;17.080;2024-03-23T15:36:09;8.21;73.08
69281;SHT31;56392;51.082;17.080;2024-03-23T15:41:34;8.13;72.18
69281;SHT31;56392;51.082;17.080;2024-03-23T15:46:57;8.11;71.02
69281;SHT31;56392;51.082;17.080;2024-03-23T15:52:20;8.18;70.38
69281;SHT31;56392;51.082;17.080;2024-03-23T15:57:44;8.11;70.62
69281;SHT31;56392;51.082;17.080;2024-03-23T16:03:07;8.20;70.62
69281;SHT31;56392;51.082;17.080;2024-03-23T16:08:31;8.04;70.34
69281;SHT31;56392;51.082;17.080;2024-03-23T16:13:57;7.91;69.81
69281;SHT31;56392;51.082;17.080;2024-03-23T16:19:21;7.90;69.93
69281;SHT31;56392;51.082;17.080;2024-03-23T16:24:44;7.84;68.92
69281;SHT31;56392;51.082;17.080;2024-03-23T16:30:10;7.59;69.42
69281;SHT31;56392;51.082;17.080;2024-03-23T16:35:33;7.62;69.56
69281;SHT31;56392;51.082;17.080;2024-03-23T16:40:57;7.58;70.30
69281;SHT31;56392;51.082;17.080;2024-03-23T16:46:22;7.49;71.13
69281;SHT31;56392;51.082;17.080;2024-03-23T16:51:45;7.49;71.63
69281;SHT31;56392;51.082;17.080;2024-03-23T16:57:08;7.48;70.90
69281;SHT31;56392;51.082;17.080;2024-03-23T17:02:32;7.45;70.30
69281;SHT31;56392;51.082;17.080;2024-03-23T17:07:59;7.33;69.69
69281;SHT31;56392;51.082;17.080;2024-03-23T17:13:22;7.28;69.37
69281;SHT31;56392;51.082;17.080;2024-03-23T17:18:49;7.12;69.86
69281;SHT31;56392;51.082;17.080;2024-03-23T17:24:13;6.97;69.27
69281;SHT31;56392;51.082;17.080;2024-03-23T17:29:36;6.98;69.26
69281;SHT31;56392;51.082;17.080;2024-03-23T17:35:02;6.98;69.36
69281;SHT31;56392;51.082;17.080;2024-03-23T17:40:26;6.91;68.91
69281;SHT31;56392;51.082;17.080;2024-03-23T17:45:49;6.76;68.49
69281;SHT31;56392;51.082;17.080;2024-03-23T17:51:14;6.57;68.93
69281;SHT31;56392;51.082;17.080;2024-03-23T17:56:38;6.54;69.49
69281;SHT31;56392;51.082;17.080;2024-03-23T18:02:01;6.49;69.82
69281;SHT31;56392;51.082;17.080;2024-03-23T18:07:26;6.47;69.86
69281;SHT31;56392;51.082;17.080;2024-03-23T18:12:48;6.40;70.38
69281;SHT31;56392;51.082;17.080;2024-03-23T18:18:12;6.50;70.49
69281;SHT31;56392;51.082;17.080;2024-03-23T18:23:37;6.47;70.38
69281;SHT31;56392;51.082;17.080;2024-03-23T18:29:00;6.44;70.22
69281;SHT31;56392;51.082;17.080;2024-03-23T18:34:23;6.47;69.96
69281;SHT31;56392;51.082;17.080;2024-03-23T18:39:47;6.43;70.21
69281;SHT31;56392;51.082;17.080;2024-03-23T18:45:10;6.44;70.09
69281;SHT31;56392;51.082;17.080;2024-03-23T18:50:35;6.46;70.53
69281;SHT31;56392;51.082;17.080;2024-03-23T18:56:01;6.43;70.41
69281;SHT31;56392;51.082;17.080;2024-03-23T19:01:24;6.46;70.54
69281;SHT31;56392;51.082;17.080;2024-03-23T19:06:47;6.50;70.58
69281;SHT31;56392;51.082;17.080;2024-03-23T19:12:12;6.43;70.77
69281;SHT31;56392;51.082;17.080;2024-03-23T19:17:35;6.36;71.31
69281;SHT31;56392;51.082;17.080;2024-03-23T19:22:58;6.39;71.35
69281;SHT31;56392;51.082;17.080;2024-03-23T19:28:23;6.46;71.41
69281;SHT31;56392;51.082;17.080;2024-03-23T19:33:49;6.44;71.67
69281;SHT31;56392;51.082;17.080;2024-03-23T19:39:12;6.46;72.09
69281;SHT31;56392;51.082;17.080;2024-03-23T19:44:38;6.49;72.08
69281;SHT31;56392;51.082;17.080;2024-03-23T19:50:01;6.46;72.45
69281;SHT31;56392;51.082;17.080;2024-03-23T19:55:28;6.42;72.77
69281;SHT31;56392;51.082;17.080;2024-03-23T20:00:52;6.37;73.33
69281;SHT31;56392;51.082;17.080;2024-03-23T20:06:17;6.32;74.06
69281;SHT31;56392;51.082;17.080;2024-03-23T20:11:41;6.36;73.91
69281;SHT31;56392;51.082;17.080;2024-03-23T20:17:06;6.40;73.90
69281;SHT31;56392;51.082;17.080;2024-03-23T20:22:29;6.37;74.39
69281;SHT31;56392;51.082;17.080;2024-03-23T20:27:52;6.34;74.72
69281;SHT31;56392;51.082;17.080;2024-03-23T20:33:17;6.28;75.59
69281;SHT31;56392;51.082;17.080;2024-03-23T20:38:40;6.23;75.36
69281;SHT31;56392;51.082;17.080;2024-03-23T20:44:04;6.20;75.68
69281;SHT31;56392;51.082;17.080;2024-03-23T20:49:29;6.13;76.60
69281;SHT31;56392;51.082;17.080;2024-03-23T20:54:52;6.05;76.33
69281;SHT31;56392;51.082;17.080;2024-03-23T21:00:15;5.95;76.89
69281;SHT31;56392;51.082;17.080;2024-03-23T21:05:40;5.87;77.24
69281;SHT31;56392;51.082;17.080;2024-03-23T21:11:03;5.78;77.47
69281;SHT31;56392;51.082;17.080;2024-03-23T21:16:29;5.72;77.97
69281;SHT31;56392;51.082;17.080;2024-03-23T21:21:53;5.67;77.91
69281;SHT31;56392;51.082;17.080;2024-03-23T21:27:17;5.60;78.09
69281;SHT31;56392;51.082;17.080;2024-03-23T21:32:41;5.57;78.58
69281;SHT31;56392;51.082;17.080;2024-03-23T21:38:07;5.54;79.16
69281;SHT31;56392;51.082;17.080;2024-03-23T21:43:30;5.55;78.91
69281;SHT31;56392;51.082;17.080;2024-03-23T21:48:53;5.51;79.02
69281;SHT31;56392;51.082;17.080;2024-03-23T21:54:18;5.48;79.03
69281;SHT31;56392;51.082;17.080;2024-03-23T21:59:41;5.41;79.61
69281;SHT31;56392;51.082;17.080;2024-03-23T22:05:04;5.38;80.16
69281;SHT31;56392;51.082;17.080;2024-03-23T22:10:31;5.37;79.81
69281;SHT31;56392;51.082;17.080;2024-03-23T22:15:57;5.29;80.47
69281;SHT31;56392;51.082;17.080;2024-03-23T22:21:20;5.22;80.11
69281;SHT31;56392;51.082;17.080;2024-03-23T22:26:45;5.16;80.42
69281;SHT31;56392;51.082;17.080;2024-03-23T22:32:08;5.13;80.21
69281;SHT31;56392;51.082;17.080;2024-03-23T22:37:31;5.17;79.82
69281;SHT31;56392;51.082;17.080;2024-03-23T22:42:56;5.15;78.57
69281;SHT31;56392;51.082;17.080;2024-03-23T22:48:19;5.12;78.90
69281;SHT31;56392;51.082;17.080;2024-03-23T22:53:42;5.12;78.55
69281;SHT31;56392;51.082;17.080;2024-03-23T22:59:07;5.07;78.31
69281;SHT31;56392;51.082;17.080;2024-03-23T23:04:30;5.06;77.65
69281;SHT31;56392;51.082;17.080;2024-03-23T23:09:55;5.16;77.36
69281;SHT31;56392;51.082;17.080;2024-03-23T23:15:20;5.12;77.26
69281;SHT31;56392;51.082;17.080;2024-03-23T23:20:43;5.16;77.30
69281;SHT31;56392;51.082;17.080;2024-03-23T23:26:06;5.16;77.53
69281;SHT31;56392;51.082;17.080;2024-03-23T23:31:31;5.12;77.17
69281;SHT31;56392;51.082;17.080;2024-03-23T23:36:54;5.12;77.78
69281;SHT31;56392;51.082;17.080;2024-03-23T23:42:17;5.03;78.40
69281;SHT31;56392;51.082;17.080;2024-03-23T23:47:42;4.92;78.98
69281;SHT31;56392;51.082;17.080;2024-03-23T23:53:05;4.79;78.95
69281;SHT31;56392;51.082;17.080;2024-03-23T23:58:28;4.66;80.05
